Time;durP1;ratioP1;P1;durP2;ratioP2;P2;SDS_P1;SDS_P2;PMS_P1;PMS_P2;Temp;Humidity;BMP_temperature;BMP_pressure;BME280_temperature;BME280_humidity;BME280_pressure;Samples;Min_cycle;Max_cycle;Signal;HPM_P1;HPM_P2
2022/01/13 22:11:22;;;;;;;8.73;3.17;;;6.90;99.90;;;;;;6277814;22;20000;-61
2022/01/13 22:13:49;;;;;;;13.98;3.90;;;6.90;99.90;;;;;;6277519;22;20000;-61
2022/01/13 22:16:18;;;;;;;11.38;3.80;;;6.80;99.90;;;;;;6277743;22;20000;-62
2022/01/13 22:18:45;;;;;;;12.25;3.42;;;6.70;99.90;;;;;;6277547;22;20038;-61
2022/01/13 22:21:15;;;;;;;14.02;3.53;;;6.70;99.90;;;;;;6277653;22;20041;-61
2022/01/13 22:23:41;;;;;;;13.15;3.33;;;6.80;99.90;;;;;;6277365;22;20081;-61
2022/01/13 22:26:08;;;;;;;15.57;3.22;;;6.90;99.90;;;;;;6277581;22;20333;-61
2022/01/13 22:28:35;;;;;;;8.35;2.15;;;6.90;99.90;;;;;;6277488;22;20004;-62
2022/01/13 22:31:01;;;;;;;7.00;2.13;;;7.10;99.90;;;;;;6277927;22;20004;-61
2022/01/13 22:33:30;;;;;;;4.22;1.70;;;7.20;99.90;;;;;;6277911;22;20428;-61
2022/01/13 22:35:57;;;;;;;3.28;1.80;;;7.30;99.90;;;;;;6277570;22;20075;-61
2022/01/13 22:38:27;;;;;;;4.85;1.60;;;7.40;99.90;;;;;;6277232;22;20094;-61
2022/01/13 22:40:54;;;;;;;7.50;1.48;;;7.50;99.90;;;;;;6250591;22;20007;-61
2022/01/13 22:43:21;;;;;;;4.32;1.45;;;7.70;99.90;;;;;;6277430;22;20034;-61
2022/01/13 22:45:49;;;;;;;10.63;1.63;;;7.70;99.90;;;;;;6277886;22;20030;-61
2022/01/13 22:48:16;;;;;;;6.43;1.95;;;7.80;99.90;;;;;;6250539;22;20440;-61
2022/01/13 22:50:43;;;;;;;6.85;1.67;;;7.70;99.90;;;;;;6250477;22;19996;-61
2022/01/13 22:53:10;;;;;;;3.17;1.25;;;7.70;99.90;;;;;;6277660;22;20436;-61
2022/01/13 22:55:37;;;;;;;3.50;1.45;;;7.70;99.90;;;;;;6277346;22;20007;-61
2022/01/13 22:58:05;;;;;;;8.50;2.05;;;7.70;99.90;;;;;;6277261;22;20003;-61
2022/01/13 23:00:47;;;;;;;5.80;1.58;;;7.70;99.90;;;;;;6277374;22;20000;-61
2022/01/13 23:03:17;;;;;;;4.82;2.00;;;7.80;99.90;;;;;;6250421;22;20007;-61
2022/01/13 23:05:43;;;;;;;6.47;1.98;;;7.80;99.90;;;;;;6277079;22;20074;-61
2022/01/13 23:08:10;;;;;;;8.15;1.70;;;7.90;99.90;;;;;;6277331;22;20012;-61
2022/01/13 23:10:38;;;;;;;6.40;1.67;;;7.90;99.90;;;;;;6277239;22;20011;-61
2022/01/13 23:13:05;;;;;;;10.13;1.85;;;7.80;99.90;;;;;;6277175;22;20004;-61
2022/01/13 23:23:52;;;;;;;13.30;2.05;;;7.70;99.90;;;;;;6277214;22;20034;-62
2022/01/13 23:26:21;;;;;;;8.77;1.48;;;7.70;99.90;;;;;;6277193;22;19999;-61
2022/01/13 23:28:48;;;;;;;6.38;1.75;;;7.70;99.90;;;;;;6276854;22;20341;-61
2022/01/13 23:31:14;;;;;;;9.43;1.75;;;7.70;99.90;;;;;;6277004;22;20078;-61
2022/01/13 23:33:41;;;;;;;4.80;1.52;;;7.70;99.90;;;;;;6276995;22;20012;-61
2022/01/13 23:36:08;;;;;;;6.40;2.00;;;7.70;99.90;;;;;;6277076;22;20020;-61
2022/01/13 23:38:39;;;;;;;8.43;1.70;;;7.70;99.90;;;;;;6276882;22;20420;-61
2022/01/13 23:41:07;;;;;;;7.65;2.42;;;7.70;99.90;;;;;;6277088;22;20007;-61
2022/01/13 23:43:35;;;;;;;5.88;1.65;;;7.80;99.90;;;;;;6276979;22;20321;-61
2022/01/13 23:49:07;;;;;;;9.52;1.27;;;7.70;99.90;;;;;;6278059;22;20003;-58
2022/01/13 23:51:35;;;;;;;13.55;2.53;;;7.70;99.90;;;;;;6278785;22;20494;-69
2022/01/13 23:54:01;;;;;;;5.28;1.52;;;7.70;99.90;;;;;;6277017;22;19996;-68
2022/01/13 23:56:28;;;;;;;5.90;1.48;;;7.60;99.90;;;;;;6276803;22;20048;-69
2022/01/13 23:58:55;;;;;;;6.55;1.70;;;7.60;99.90;;;;;;6276671;22;20026;-68
